Terminal Aerodrome Forecast
Issued by NWS

Home | Current Version | Previous Version | Text Only | Print | Product List | Glossary On
Versions: 1 2 3 4 5 6 7 8 9 10 11 12 13 14
093
FTUS43 KIND 271125
TAFHUF
TAF
KHUF 271125Z 2712/2812 VRB03KT P6SM BKN110
     FM271600 12007KT P6SM VCSH BKN100
     FM271800 13008KT 5SM -SHRA VCTS OVC035CB
     FM272300 14006KT 6SM -SHRA VCTS OVC040CB
     FM280300 07004KT P6SM VCTS OVC030CB
     FM280600 VRB03KT P6SM OVC015
     FM280900 35005KT P6SM BKN008=

USA.gov is the U.S. government's official web portal to all federal, state and local government web resources and services.